createdAt,value
2024-03-01T00:24:52.428Z,67176.91
2024-03-01T00:27:44.026Z,67167.59
2024-03-01T00:30:30.346Z,67219.19
2024-03-01T00:33:18.858Z,67203.34
2024-03-01T00:36:05.003Z,67195.91
2024-03-01T00:41:32.295Z,67194.41
2024-03-01T00:46:53.266Z,67207.06
2024-03-01T00:49:40.083Z,67210.44
2024-03-01T00:52:25.598Z,67220.31
2024-03-01T00:55:19.660Z,67183.38
2024-03-01T00:58:05.311Z,67201.09
2024-03-01T01:11:53.506Z,67194.41
2024-03-01T01:14:39.232Z,67181.94
2024-03-01T01:17:24.649Z,67162.56
2024-03-01T01:30:58.409Z,67192.72
2024-03-01T01:33:43.679Z,67185.84
2024-03-01T01:36:30.428Z,67159.22
2024-03-01T01:39:17.285Z,67185.63
2024-03-01T01:44:50.233Z,67198.47
2024-03-01T01:47:36.102Z,67124.97
2024-03-01T01:50:22.120Z,67210.56
2024-03-01T01:58:28.772Z,67198.84
2024-03-01T02:01:16.636Z,67217.69
2024-03-01T02:04:03.500Z,67228.84
2024-03-01T02:06:50.877Z,67207.25
2024-03-01T02:09:43.380Z,67227.34
2024-03-01T02:18:12.949Z,67119.78
2024-03-01T02:21:07.934Z,67121.63
2024-03-01T02:24:07.321Z,67074.34
2024-03-01T02:27:15.060Z,67054.66
2024-03-01T02:33:13.268Z,67003.34
2024-03-01T02:35:58.895Z,66982.53
2024-03-01T02:41:26.163Z,66930.63
2024-03-01T02:44:11.430Z,66982.13
2024-03-01T02:46:57.158Z,66966.69
2024-03-01T02:49:42.992Z,66989.56
2024-03-01T02:52:28.499Z,66984.34
2024-03-01T02:55:21.718Z,66977.50
2024-03-01T03:00:49.741Z,66971.38
2024-03-01T03:03:37.908Z,66982.53
2024-03-01T03:06:23.072Z,66968.75
2024-03-01T03:09:10.774Z,66946.44
2024-03-01T03:11:56.884Z,66984.00
2024-03-01T03:14:48.797Z,66995.13
2024-03-01T03:17:35.196Z,66960.94
2024-03-01T03:23:04.247Z,66905.94
2024-03-01T03:25:50.179Z,66952.19
2024-03-01T03:28:37.323Z,66971.16
2024-03-01T03:31:23.910Z,66978.22
2024-03-01T03:34:11.432Z,66985.13
2024-03-01T03:37:00.010Z,66952.75
2024-03-01T04:01:15.776Z,66961.50
2024-03-01T04:04:07.616Z,66967.78
2024-03-01T04:06:53.482Z,66984.34
2024-03-01T04:09:38.919Z,66988.44
2024-03-01T04:12:28.568Z,66972.81
2024-03-01T04:15:14.468Z,66991.06
2024-03-01T04:18:00.282Z,66973.94
2024-03-01T04:20:45.688Z,66981.72
2024-03-01T04:23:32.794Z,66956.28
2024-03-01T04:26:19.960Z,66915.97
2024-03-01T04:29:07.421Z,66955.94
2024-03-01T04:31:53.291Z,66976.16
2024-03-01T04:34:38.462Z,66972.28
2024-03-01T04:37:26.630Z,66962.78
2024-03-01T04:40:12.731Z,66980.06
2024-03-01T04:42:58.766Z,66906.84
2024-03-01T04:45:44.701Z,66937.53
2024-03-01T04:48:31.679Z,66967.06
2024-03-01T04:51:17.521Z,66979.91
2024-03-01T04:54:03.303Z,66960.94
2024-03-01T04:56:51.538Z,66968.53
2024-03-01T04:59:42.113Z,66970.03
2024-03-01T05:02:28.455Z,66975.59
2024-03-01T05:05:16.441Z,66972.81
2024-03-01T05:08:02.941Z,66983.41
2024-03-01T05:10:51.513Z,66947.56
2024-03-01T05:13:38.005Z,66962.06
2024-03-01T05:16:23.451Z,66965.78
2024-03-01T05:19:08.790Z,66952.56
2024-03-01T05:21:54.222Z,66957.22
2024-03-01T05:24:43.173Z,66958.56
2024-03-01T05:27:28.689Z,66919.31
2024-03-01T05:30:32.544Z,66916.19
2024-03-01T05:33:35.986Z,66890.16
2024-03-01T05:36:22.428Z,66952.75
2024-03-01T05:47:13.489Z,66923.59
2024-03-01T05:49:59.667Z,66955.75
2024-03-01T05:55:26.768Z,66921.38
2024-03-01T05:58:14.286Z,66921.53
2024-03-01T06:03:41.613Z,66896.69
2024-03-01T06:06:28.772Z,66951.69
2024-03-01T06:09:16.704Z,66893.34
2024-03-01T06:12:06.893Z,66950.19
2024-03-01T06:33:32.520Z,66940.50
2024-03-01T06:38:54.487Z,66909.50
2024-03-01T06:41:42.555Z,66936.03
2024-03-01T06:44:39.381Z,66924.88
2024-03-01T06:50:10.572Z,66874.75
2024-03-01T06:52:55.892Z,66933.25
2024-03-01T07:00:58.206Z,66924.50
2024-03-01T07:03:44.438Z,66902.59
2024-03-01T07:06:32.152Z,66933.63
2024-03-01T07:09:17.728Z,66927.66
2024-03-01T07:12:04.304Z,66929.91
2024-03-01T07:14:49.689Z,66938.25
2024-03-01T07:17:36.977Z,66928.78
2024-03-01T07:20:22.479Z,66896.47
2024-03-01T07:23:09.409Z,66873.28
2024-03-01T07:25:54.947Z,66880.69
2024-03-01T07:28:41.803Z,66890.34
2024-03-01T07:31:27.667Z,66886.25
2024-03-01T07:34:13.768Z,66891.81
2024-03-01T07:36:59.634Z,66917.63
2024-03-01T07:39:45.075Z,66937.13
2024-03-01T07:42:30.566Z,66888.13
2024-03-01T07:45:16.181Z,66856.75
2024-03-01T07:48:02.532Z,66905.59
2024-03-01T07:50:47.827Z,66932.34
2024-03-01T07:53:33.228Z,66857.31
2024-03-01T07:56:23.332Z,66915.25
2024-03-01T07:59:12.501Z,66885.31
2024-03-01T08:02:02.254Z,66893.69
2024-03-01T08:04:47.597Z,66886.81
2024-03-01T08:07:33.135Z,66928.22
2024-03-01T08:10:18.623Z,66972.81
2024-03-01T08:13:04.449Z,66998.16
2024-03-01T08:15:49.940Z,67016.34
2024-03-01T08:18:39.407Z,67026.38
2024-03-01T08:21:27.180Z,66995.13
2024-03-01T08:24:24.464Z,67026.38
2024-03-01T08:27:11.008Z,66993.47
2024-03-01T08:29:57.720Z,66990.13
2024-03-01T08:32:46.698Z,67006.31
2024-03-01T08:35:31.787Z,67019.66
2024-03-01T08:38:45.035Z,66999.78
2024-03-01T08:41:30.645Z,66960.00
2024-03-01T08:44:49.622Z,66991.06
2024-03-01T08:47:43.501Z,66993.47
2024-03-01T08:50:42.732Z,66966.53
2024-03-01T08:54:00.757Z,66937.53
2024-03-01T08:57:02.411Z,66948.69
2024-03-01T08:59:49.247Z,66944.22
2024-03-01T09:02:41.869Z,66948.28
2024-03-01T09:05:29.050Z,66937.53
2024-03-01T09:08:23.405Z,66924.00
2024-03-01T09:11:13.222Z,66924.16
2024-03-01T09:13:59.498Z,66939.94
2024-03-01T09:16:45.211Z,66946.63
2024-03-01T09:19:38.210Z,66972.81
2024-03-01T09:22:26.117Z,66963.91
2024-03-01T09:25:42.921Z,66971.72
2024-03-01T09:28:28.170Z,66974.00
2024-03-01T09:31:13.574Z,66973.22
2024-03-01T09:34:07.332Z,66968.75
2024-03-01T09:36:52.983Z,66975.22
2024-03-01T09:39:40.688Z,66973.22
2024-03-01T09:42:45.347Z,66964.84
2024-03-01T09:45:54.177Z,67046.44
2024-03-01T09:49:07.573Z,67225.09
2024-03-01T09:52:17.610Z,67208.34
2024-03-01T09:55:15.220Z,67183.78
2024-03-01T09:58:21.254Z,67229.97
2024-03-01T10:01:15.215Z,67245.59
2024-03-01T10:04:22.314Z,67282.13
2024-03-01T10:07:16.935Z,67300.00
2024-03-01T10:10:27.245Z,67222.31
2024-03-01T10:13:36.900Z,67275.41
2024-03-01T10:16:52.783Z,67367.66
2024-03-01T10:19:53.645Z,67219.53
2024-03-01T10:23:02.235Z,67249.69
2024-03-01T10:26:07.735Z,67282.66
2024-03-01T10:29:16.849Z,67287.69
2024-03-01T10:32:31.270Z,67164.78
2024-03-01T10:35:23.047Z,67159.22
2024-03-01T10:38:24.131Z,67156.03
2024-03-01T10:52:19.556Z,67142.28
2024-03-01T10:55:12.172Z,67138.94
2024-03-01T10:58:09.501Z,67188.63
2024-03-01T11:01:27.256Z,67186.41
2024-03-01T11:04:19.192Z,67163.69
2024-03-01T11:07:29.543Z,67168.72
2024-03-01T11:10:27.095Z,67157.00
2024-03-01T11:13:19.176Z,67228.16
2024-03-01T11:16:07.510Z,67151.38
2024-03-01T11:18:57.413Z,67164.63
2024-03-01T11:21:52.163Z,67188.63
2024-03-01T11:24:44.828Z,67254.31
2024-03-01T11:27:33.408Z,67175.78
2024-03-01T11:30:25.930Z,67086.47
2024-03-01T11:33:12.211Z,67059.84
2024-03-01T11:36:12.891Z,67064.53
2024-03-01T11:39:08.183Z,67050.94
2024-03-01T11:42:05.564Z,67058.56
2024-03-01T11:45:22.338Z,67011.16
2024-03-01T11:48:38.534Z,67098.56
2024-03-01T11:51:48.121Z,67124.56
2024-03-01T11:54:54.671Z,67053.13
2024-03-01T11:58:03.011Z,67079.22
2024-03-01T12:01:10.258Z,67059.84
2024-03-01T12:04:15.624Z,67110.47
2024-03-01T12:07:01.096Z,67075.28
2024-03-01T12:10:04.454Z,67058.56
2024-03-01T12:12:52.697Z,67095.72
2024-03-01T12:16:17.887Z,67042.72
2024-03-01T12:19:14.094Z,67026.94
2024-03-01T12:22:29.821Z,67081.59
2024-03-01T12:25:16.074Z,67116.78
2024-03-01T12:28:30.380Z,67140.59
2024-03-01T12:31:27.956Z,67099.31
2024-03-01T12:34:22.125Z,67053.94
2024-03-01T12:37:46.202Z,67052.59
2024-03-01T12:41:02.286Z,67006.84
2024-03-01T12:43:59.284Z,67067.09
2024-03-01T12:47:04.166Z,67040.16
2024-03-01T12:50:11.647Z,67034.59
2024-03-01T12:53:35.405Z,67068.59
2024-03-01T12:56:40.412Z,67070.28
2024-03-01T12:59:49.374Z,67101.53
2024-03-01T13:02:53.644Z,67050.38
2024-03-01T13:05:42.561Z,67050.38
2024-03-01T13:08:40.697Z,67027.47
2024-03-01T13:11:28.633Z,67012.25
2024-03-01T13:14:45.110Z,67013.53
2024-03-01T13:17:43.102Z,67037.34
2024-03-01T13:21:00.959Z,67063.56
2024-03-01T13:23:54.731Z,67070.84
2024-03-01T13:27:07.402Z,67051.31
2024-03-01T13:29:55.952Z,67049.81
2024-03-01T13:32:51.288Z,67062.47
2024-03-01T13:35:39.811Z,67044.78
2024-03-01T13:38:32.480Z,67010.75
2024-03-01T13:41:27.093Z,67025.66
2024-03-01T13:44:27.494Z,67029.94
2024-03-01T13:47:14.972Z,67039.97
2024-03-01T13:50:07.851Z,67021.75
2024-03-01T13:52:54.389Z,67055.94
2024-03-01T13:55:42.782Z,67030.84
2024-03-01T13:58:33.740Z,67062.47
2024-03-01T14:01:26.271Z,67008.19
2024-03-01T14:04:11.655Z,67000.00
2024-03-01T14:06:58.839Z,67028.97
2024-03-01T14:09:49.766Z,67023.03
2024-03-01T14:12:35.144Z,67016.56
2024-03-01T14:15:22.777Z,67066.94
2024-03-01T14:18:12.620Z,66989.22
2024-03-01T14:20:58.113Z,67017.44
2024-03-01T14:23:43.398Z,67068.44
2024-03-01T14:26:28.872Z,67069.88
2024-03-01T14:29:14.286Z,67021.75
2024-03-01T14:32:15.081Z,67071.00
2024-03-01T14:35:00.744Z,67056.66
2024-03-01T14:37:46.736Z,67087.75
2024-03-01T14:40:34.637Z,67079.94
2024-03-01T14:43:20.076Z,67131.81
2024-03-01T14:46:07.529Z,67130.72
2024-03-01T14:48:52.837Z,67097.06
2024-03-01T14:51:38.433Z,67135.97
2024-03-01T14:54:32.566Z,67115.88
2024-03-01T14:57:18.150Z,67139.09
2024-03-01T15:00:04.349Z,67106.16
2024-03-01T15:02:50.105Z,67074.91
2024-03-01T15:05:36.664Z,67097.78
2024-03-01T15:08:22.067Z,67108.22
2024-03-01T15:11:09.501Z,67141.72
2024-03-01T15:13:57.617Z,67172.59
2024-03-01T15:16:45.742Z,67173.97
2024-03-01T15:19:38.578Z,67150.66
2024-03-01T15:22:23.784Z,67179.88
2024-03-01T15:25:12.103Z,67157.91
2024-03-01T15:27:58.191Z,67129.44
2024-03-01T15:30:46.534Z,67123.28
2024-03-01T15:33:31.822Z,67108.78
2024-03-01T15:36:16.902Z,67098.91
2024-03-01T15:39:04.011Z,67100.97
2024-03-01T15:41:49.341Z,67094.44
2024-03-01T15:44:34.592Z,67090.22
2024-03-01T15:47:20.258Z,67099.44
2024-03-01T15:50:06.240Z,67086.78
2024-03-01T15:52:56.096Z,67063.91
2024-03-01T15:55:48.501Z,67100.41
2024-03-01T15:58:34.513Z,67108.78
2024-03-01T16:01:20.112Z,67122.72
2024-03-01T16:04:05.668Z,67085.34
2024-03-01T16:06:54.273Z,67047.41
2024-03-01T16:09:42.783Z,67094.81
2024-03-01T16:12:28.232Z,67071.41
2024-03-01T16:15:17.150Z,67045.34
2024-03-01T16:18:03.042Z,67058.75
2024-03-01T16:20:48.893Z,67080.47
2024-03-01T16:23:40.297Z,67075.47
2024-03-01T16:26:26.258Z,67043.09
2024-03-01T16:29:11.586Z,67042.56
2024-03-01T16:31:56.690Z,67047.56
2024-03-01T16:34:42.353Z,67002.38
2024-03-01T16:37:30.863Z,67008.53
2024-03-01T16:40:18.919Z,66971.38
2024-03-01T16:43:04.493Z,66910.78
2024-03-01T16:45:49.783Z,66916.53
2024-03-01T16:48:53.643Z,66923.75
2024-03-01T16:51:43.341Z,66902.97
2024-03-01T16:54:32.520Z,66943.50
2024-03-01T16:57:30.282Z,66947.56
2024-03-01T17:00:16.140Z,66941.03
2024-03-01T17:03:03.516Z,66965.03
2024-03-01T17:05:48.648Z,66995.38
2024-03-01T17:08:43.993Z,67012.44
2024-03-01T17:11:30.914Z,67007.59
2024-03-01T17:14:17.521Z,67016.72
2024-03-01T17:17:03.021Z,67020.22
2024-03-01T17:19:50.637Z,67019.13
2024-03-01T17:22:36.619Z,67036.25
2024-03-01T17:25:22.755Z,67040.31
2024-03-01T17:28:08.332Z,67058.00
2024-03-01T17:30:53.791Z,67052.03
2024-03-01T17:33:39.444Z,67044.78
2024-03-01T17:36:25.645Z,67044.63
2024-03-01T17:39:10.967Z,67053.53
2024-03-01T17:41:56.605Z,67055.59
2024-03-01T17:44:41.651Z,67050.19
2024-03-01T17:47:27.348Z,67057.63
2024-03-01T17:50:14.555Z,67061.91
2024-03-01T17:52:59.905Z,67032.53
2024-03-01T17:55:48.303Z,67016.91
2024-03-01T17:58:34.826Z,67039.19
2024-03-01T18:01:20.140Z,67046.06
2024-03-01T18:04:08.214Z,67038.09
2024-03-01T18:06:53.517Z,67031.41
2024-03-01T18:09:39.224Z,67047.78
2024-03-01T18:12:24.641Z,67033.47
2024-03-01T18:15:10.150Z,67001.50
2024-03-01T18:17:55.537Z,66970.97
2024-03-01T18:20:41.386Z,66909.28
2024-03-01T18:23:27.620Z,66899.41
2024-03-01T18:26:13.553Z,66864.38
2024-03-01T18:28:59.986Z,66863.81
2024-03-01T18:31:45.425Z,66885.88
2024-03-01T18:34:31.206Z,66891.81
2024-03-01T18:37:16.743Z,66853.94
2024-03-01T18:40:02.546Z,66853.38
2024-03-01T18:50:56.008Z,66880.69
2024-03-01T18:53:41.552Z,66820.53
2024-03-01T19:02:21.590Z,66831.69
2024-03-01T19:05:13.565Z,66855.78
2024-03-01T19:10:46.360Z,66872.88
2024-03-01T19:13:32.432Z,66837.81
2024-03-01T19:16:17.970Z,66865.66
2024-03-01T19:21:44.947Z,66820.94
2024-03-01T19:24:30.921Z,66840.38
2024-03-01T19:27:20.819Z,66863.59
2024-03-01T19:30:08.343Z,66877.34
2024-03-01T19:32:54.398Z,66886.66
2024-03-01T19:35:40.565Z,66855.63
2024-03-01T19:38:26.711Z,66833.31
2024-03-01T20:40:38.936Z,66890.72
2024-03-01T21:05:16.104Z,66919.13
2024-03-01T21:16:03.478Z,66931.56
2024-03-01T21:18:49.490Z,66917.06
2024-03-01T21:24:24.175Z,66913.19
2024-03-01T21:27:10.021Z,66921.94
2024-03-01T21:29:55.578Z,66933.44
2024-03-01T21:32:40.842Z,66915.59
2024-03-01T21:35:26.219Z,66931.41
2024-03-01T21:38:11.588Z,66938.81
2024-03-01T21:40:57.107Z,66936.06
2024-03-01T21:43:42.383Z,66923.75
2024-03-01T22:02:41.866Z,66958.31
2024-03-01T22:05:27.869Z,66956.66
2024-03-01T22:08:15.301Z,66962.78
2024-03-01T22:11:01.213Z,66951.97
2024-03-01T22:13:46.533Z,66978.78
2024-03-01T22:16:31.954Z,66974.31
2024-03-01T22:19:17.350Z,66992.94
2024-03-01T22:22:03.072Z,66986.78
2024-03-01T22:24:48.421Z,66971.72
2024-03-01T22:27:36.738Z,66992.19
2024-03-01T22:30:22.104Z,66978.06
2024-03-01T22:33:09.072Z,66999.25
2024-03-01T22:35:55.719Z,66982.84
2024-03-01T22:38:43.397Z,66988.84
2024-03-01T22:41:28.611Z,67000.72
2024-03-01T22:44:14.547Z,66976.16
2024-03-01T22:46:59.679Z,67000.16
2024-03-01T22:49:46.908Z,66988.84
2024-03-01T22:52:34.224Z,66993.88
2024-03-01T22:55:33.637Z,66995.53
2024-03-01T22:58:20.736Z,67043.81
2024-03-01T23:01:17.780Z,67079.22
2024-03-01T23:04:03.450Z,67082.72
2024-03-01T23:06:49.035Z,67086.63
2024-03-01T23:09:34.185Z,67069.88
2024-03-01T23:12:27.511Z,67071.94
2024-03-01T23:15:12.697Z,67082.38
2024-03-01T23:17:58.034Z,67053.53
2024-03-01T23:20:43.309Z,67023.03
2024-03-01T23:23:29.210Z,67018.41
2024-03-01T23:26:14.612Z,66996.25
2024-03-01T23:29:00.110Z,67018.72
2024-03-01T23:31:45.478Z,66984.00
2024-03-01T23:34:31.106Z,67020.06
2024-03-01T23:37:16.636Z,66989.94
2024-03-01T23:40:02.260Z,66996.63
2024-03-01T23:42:47.746Z,66986.03
2024-03-01T23:45:33.577Z,66974.47
2024-03-01T23:48:18.985Z,66979.72
2024-03-01T23:51:04.370Z,66949.41
2024-03-01T23:53:50.413Z,66943.28
2024-03-01T23:56:36.801Z,66955.38
2024-03-01T23:59:21.997Z,66942.72
